sensor_id;sensor_type;location;lat;lon;timestamp;pressure;altitude;pressure_sealevel;temperature;humidity
15050;BME280;7622;42.724;23.250;2023-02-16T00:01:20;95916.84;;;0.61;100.00
15050;BME280;7622;42.724;23.250;2023-02-16T00:03:48;95917.88;;;0.55;100.00
15050;BME280;7622;42.724;23.250;2023-02-16T00:06:15;95911.09;;;0.54;100.00
15050;BME280;7622;42.724;23.250;2023-02-16T00:08:44;95917.88;;;0.55;100.00
15050;BME280;7622;42.724;23.250;2023-02-16T00:11:18;95908.69;;;0.50;100.00
15050;BME280;7622;42.724;23.250;2023-02-16T00:14:04;95914.63;;;0.50;100.00
15050;BME280;7622;42.724;23.250;2023-02-16T00:16:32;95915.25;;;0.57;100.00
15050;BME280;7622;42.724;23.250;2023-02-16T00:18:59;95911.94;;;0.55;100.00
15050;BME280;7622;42.724;23.250;2023-02-16T00:21:26;95917.19;;;0.50;100.00
15050;BME280;7622;42.724;23.250;2023-02-16T00:23:54;95910.56;;;0.45;100.00
15050;BME280;7622;42.724;23.250;2023-02-16T00:26:23;95911.16;;;0.53;100.00
15050;BME280;7622;42.724;23.250;2023-02-16T00:28:51;95900.56;;;0.38;100.00
15050;BME280;7622;42.724;23.250;2023-02-16T00:31:20;95907.44;;;0.36;100.00
15050;BME280;7622;42.724;23.250;2023-02-16T00:33:48;95911.19;;;0.26;100.00
15050;BME280;7622;42.724;23.250;2023-02-16T00:36:15;95914.50;;;0.28;100.00
15050;BME280;7622;42.724;23.250;2023-02-16T00:38:42;95910.34;;;0.26;100.00
15050;BME280;7622;42.724;23.250;2023-02-16T00:41:16;95911.50;;;0.17;100.00
15050;BME280;7622;42.724;23.250;2023-02-16T00:43:56;95915.81;;;0.15;100.00
15050;BME280;7622;42.724;23.250;2023-02-16T00:46:23;95916.16;;;0.05;100.00
15050;BME280;7622;42.724;23.250;2023-02-16T00:48:50;95912.31;;;0.18;100.00
15050;BME280;7622;42.724;23.250;2023-02-16T00:51:17;95908.78;;;0.22;100.00
15050;BME280;7622;42.724;23.250;2023-02-16T00:53:43;95910.22;;;0.04;100.00
15050;BME280;7622;42.724;23.250;2023-02-16T00:56:12;95914.56;;;0.00;100.00
15050;BME280;7622;42.724;23.250;2023-02-16T00:58:44;95909.63;;;-0.04;100.00
15050;BME280;7622;42.724;23.250;2023-02-16T01:01:13;95895.31;;;-0.08;100.00
15050;BME280;7622;42.724;23.250;2023-02-16T01:03:41;95899.53;;;-0.07;100.00
15050;BME280;7622;42.724;23.250;2023-02-16T01:06:09;95906.44;;;-0.11;100.00
15050;BME280;7622;42.724;23.250;2023-02-16T01:08:54;95905.19;;;-0.25;100.00
15050;BME280;7622;42.724;23.250;2023-02-16T01:11:43;95904.97;;;-0.18;100.00
15050;BME280;7622;42.724;23.250;2023-02-16T01:14:12;95904.13;;;-0.18;100.00
15050;BME280;7622;42.724;23.250;2023-02-16T01:16:40;95903.97;;;-0.40;100.00
15050;BME280;7622;42.724;23.250;2023-02-16T01:19:09;95898.38;;;-0.25;100.00
15050;BME280;7622;42.724;23.250;2023-02-16T01:21:36;95892.81;;;-0.37;100.00
15050;BME280;7622;42.724;23.250;2023-02-16T01:24:03;95895.81;;;-0.25;100.00
15050;BME280;7622;42.724;23.250;2023-02-16T01:26:31;95879.47;;;-0.46;100.00
15050;BME280;7622;42.724;23.250;2023-02-16T01:29:02;95869.25;;;-0.46;100.00
15050;BME280;7622;42.724;23.250;2023-02-16T01:31:31;95887.91;;;-0.44;100.00
15050;BME280;7622;42.724;23.250;2023-02-16T01:33:58;95883.84;;;-0.49;100.00
15050;BME280;7622;42.724;23.250;2023-02-16T01:36:27;95872.22;;;-0.31;100.00
15050;BME280;7622;42.724;23.250;2023-02-16T01:38:56;95876.94;;;-0.19;100.00
15050;BME280;7622;42.724;23.250;2023-02-16T01:41:34;95879.69;;;-0.25;100.00
15050;BME280;7622;42.724;23.250;2023-02-16T01:44:11;95865.56;;;-0.35;100.00
15050;BME280;7622;42.724;23.250;2023-02-16T01:46:44;95867.91;;;-0.56;100.00
15050;BME280;7622;42.724;23.250;2023-02-16T01:49:16;95868.22;;;-0.40;100.00
15050;BME280;7622;42.724;23.250;2023-02-16T01:51:50;95864.56;;;-0.31;100.00
15050;BME280;7622;42.724;23.250;2023-02-16T01:54:28;95867.31;;;-0.37;100.00
15050;BME280;7622;42.724;23.250;2023-02-16T01:56:59;95861.38;;;-0.38;100.00
15050;BME280;7622;42.724;23.250;2023-02-16T01:59:36;95857.50;;;-0.23;100.00
15050;BME280;7622;42.724;23.250;2023-02-16T02:02:11;95869.66;;;-0.31;100.00
15050;BME280;7622;42.724;23.250;2023-02-16T02:04:43;95866.75;;;-0.47;100.00
15050;BME280;7622;42.724;23.250;2023-02-16T02:07:36;95863.69;;;-0.30;100.00
15050;BME280;7622;42.724;23.250;2023-02-16T02:10:12;95870.47;;;-0.29;100.00
15050;BME280;7622;42.724;23.250;2023-02-16T02:12:46;95870.28;;;-0.51;100.00
15050;BME280;7622;42.724;23.250;2023-02-16T02:15:16;95867.34;;;0.14;100.00
15050;BME280;7622;42.724;23.250;2023-02-16T02:17:46;95852.47;;;0.25;100.00
15050;BME280;7622;42.724;23.250;2023-02-16T02:20:20;95855.72;;;0.05;100.00
15050;BME280;7622;42.724;23.250;2023-02-16T02:23:24;95861.13;;;-0.04;100.00
15050;BME280;7622;42.724;23.250;2023-02-16T02:26:17;95854.25;;;-0.02;100.00
15050;BME280;7622;42.724;23.250;2023-02-16T02:28:56;95858.34;;;-0.23;100.00
15050;BME280;7622;42.724;23.250;2023-02-16T02:31:37;95852.97;;;-0.15;100.00
15050;BME280;7622;42.724;23.250;2023-02-16T02:34:11;95844.97;;;-0.31;100.00
15050;BME280;7622;42.724;23.250;2023-02-16T02:36:49;95840.91;;;-0.36;100.00
15050;BME280;7622;42.724;23.250;2023-02-16T02:39:23;95856.22;;;-0.10;100.00
15050;BME280;7622;42.724;23.250;2023-02-16T02:41:59;95854.94;;;-0.23;100.00
15050;BME280;7622;42.724;23.250;2023-02-16T02:44:37;95849.84;;;-0.23;100.00
15050;BME280;7622;42.724;23.250;2023-02-16T02:47:05;95856.50;;;-0.19;100.00
15050;BME280;7622;42.724;23.250;2023-02-16T02:49:31;95861.75;;;-0.24;100.00
15050;BME280;7622;42.724;23.250;2023-02-16T02:51:58;95860.44;;;-0.35;100.00
15050;BME280;7622;42.724;23.250;2023-02-16T02:54:27;95860.44;;;-0.35;100.00
15050;BME280;7622;42.724;23.250;2023-02-16T02:57:15;95861.38;;;-0.66;100.00
15050;BME280;7622;42.724;23.250;2023-02-16T03:00:05;95864.41;;;-0.81;100.00
15050;BME280;7622;42.724;23.250;2023-02-16T03:02:54;95777.75;;;-1.10;100.00
15050;BME280;7622;42.724;23.250;2023-02-16T03:05:26;95865.38;;;-0.85;100.00
15050;BME280;7622;42.724;23.250;2023-02-16T03:07:57;95873.16;;;-0.90;100.00
15050;BME280;7622;42.724;23.250;2023-02-16T03:10:33;95859.94;;;-0.74;100.00
15050;BME280;7622;42.724;23.250;2023-02-16T03:13:22;95863.63;;;-0.83;100.00
15050;BME280;7622;42.724;23.250;2023-02-16T03:15:53;95857.38;;;-1.02;100.00
15050;BME280;7622;42.724;23.250;2023-02-16T03:18:23;95856.13;;;-0.89;100.00
15050;BME280;7622;42.724;23.250;2023-02-16T03:21:10;95858.03;;;-0.68;100.00
15050;BME280;7622;42.724;23.250;2023-02-16T03:23:56;95862.59;;;-0.77;100.00
15050;BME280;7622;42.724;23.250;2023-02-16T03:26:43;95860.94;;;-0.78;100.00
15050;BME280;7622;42.724;23.250;2023-02-16T03:29:27;95863.78;;;-0.89;100.00
15050;BME280;7622;42.724;23.250;2023-02-16T03:31:56;95858.78;;;-0.92;100.00
15050;BME280;7622;42.724;23.250;2023-02-16T03:34:23;95855.13;;;-0.84;100.00
15050;BME280;7622;42.724;23.250;2023-02-16T03:36:52;95845.41;;;-0.71;100.00
15050;BME280;7622;42.724;23.250;2023-02-16T03:39:23;95849.69;;;-0.73;100.00
15050;BME280;7622;42.724;23.250;2023-02-16T03:41:51;95845.59;;;-0.77;100.00
15050;BME280;7622;42.724;23.250;2023-02-16T03:44:18;95850.19;;;-0.62;100.00
15050;BME280;7622;42.724;23.250;2023-02-16T03:46:46;95811.06;;;-0.89;100.00
15050;BME280;7622;42.724;23.250;2023-02-16T03:49:15;95858.00;;;-0.94;100.00
15050;BME280;7622;42.724;23.250;2023-02-16T03:51:42;95862.66;;;-0.79;100.00
15050;BME280;7622;42.724;23.250;2023-02-16T03:54:09;95859.66;;;-0.93;100.00
15050;BME280;7622;42.724;23.250;2023-02-16T03:56:36;95853.06;;;-1.00;100.00
15050;BME280;7622;42.724;23.250;2023-02-16T03:59:03;95857.56;;;-1.08;100.00
15050;BME280;7622;42.724;23.250;2023-02-16T04:01:30;95859.59;;;-1.20;100.00
15050;BME280;7622;42.724;23.250;2023-02-16T04:03:57;95852.19;;;-1.29;100.00
15050;BME280;7622;42.724;23.250;2023-02-16T04:06:25;95846.81;;;-1.18;100.00
15050;BME280;7622;42.724;23.250;2023-02-16T04:08:51;95842.50;;;-1.45;100.00
15050;BME280;7622;42.724;23.250;2023-02-16T04:11:18;95843.00;;;-1.33;100.00
15050;BME280;7622;42.724;23.250;2023-02-16T04:14:03;95845.72;;;-1.39;100.00
15050;BME280;7622;42.724;23.250;2023-02-16T04:16:29;95846.75;;;-1.16;100.00
15050;BME280;7622;42.724;23.250;2023-02-16T04:18:56;95837.78;;;-1.30;100.00
15050;BME280;7622;42.724;23.250;2023-02-16T04:21:24;95832.97;;;-1.39;100.00
15050;BME280;7622;42.724;23.250;2023-02-16T04:23:51;95844.13;;;-1.13;100.00
15050;BME280;7622;42.724;23.250;2023-02-16T04:26:18;95840.69;;;-1.42;100.00
15050;BME280;7622;42.724;23.250;2023-02-16T04:28:45;95844.81;;;-1.38;100.00
15050;BME280;7622;42.724;23.250;2023-02-16T04:31:11;95840.22;;;-1.56;100.00
15050;BME280;7622;42.724;23.250;2023-02-16T04:33:38;95838.97;;;-1.41;100.00
15050;BME280;7622;42.724;23.250;2023-02-16T04:36:06;95843.34;;;-1.77;100.00
15050;BME280;7622;42.724;23.250;2023-02-16T04:38:34;95844.19;;;-1.77;100.00
15050;BME280;7622;42.724;23.250;2023-02-16T04:41:01;95839.09;;;-1.77;100.00
15050;BME280;7622;42.724;23.250;2023-02-16T04:43:27;95853.00;;;-1.58;100.00
15050;BME280;7622;42.724;23.250;2023-02-16T04:45:54;95847.66;;;-1.79;100.00
15050;BME280;7622;42.724;23.250;2023-02-16T04:48:21;95853.34;;;-1.70;100.00
15050;BME280;7622;42.724;23.250;2023-02-16T04:50:48;95853.88;;;-1.89;100.00
15050;BME280;7622;42.724;23.250;2023-02-16T04:53:16;95822.31;;;-2.15;100.00
15050;BME280;7622;42.724;23.250;2023-02-16T04:55:46;95844.13;;;-1.74;100.00
15050;BME280;7622;42.724;23.250;2023-02-16T04:58:12;95850.88;;;-1.73;100.00
15050;BME280;7622;42.724;23.250;2023-02-16T05:00:39;95858.59;;;-1.76;100.00
15050;BME280;7622;42.724;23.250;2023-02-16T05:03:06;95854.25;;;-1.72;100.00
15050;BME280;7622;42.724;23.250;2023-02-16T05:05:33;95865.41;;;-1.76;100.00
15050;BME280;7622;42.724;23.250;2023-02-16T05:08:00;95787.53;;;-2.16;100.00
15050;BME280;7622;42.724;23.250;2023-02-16T05:10:27;95866.28;;;-1.77;100.00
15050;BME280;7622;42.724;23.250;2023-02-16T05:12:55;95864.38;;;-1.69;100.00
15050;BME280;7622;42.724;23.250;2023-02-16T05:15:39;95864.59;;;-1.46;100.00
15050;BME280;7622;42.724;23.250;2023-02-16T05:18:06;95867.88;;;-1.42;100.00
15050;BME280;7622;42.724;23.250;2023-02-16T05:20:33;95868.31;;;-1.28;100.00
15050;BME280;7622;42.724;23.250;2023-02-16T05:23:17;95860.03;;;-1.35;100.00
15050;BME280;7622;42.724;23.250;2023-02-16T05:25:44;95874.16;;;-1.54;100.00
15050;BME280;7622;42.724;23.250;2023-02-16T05:28:12;95845.31;;;-1.87;100.00
15050;BME280;7622;42.724;23.250;2023-02-16T05:30:39;95876.41;;;-1.74;100.00
15050;BME280;7622;42.724;23.250;2023-02-16T05:33:06;95884.53;;;-1.94;100.00
15050;BME280;7622;42.724;23.250;2023-02-16T05:35:33;95884.59;;;-1.97;100.00
15050;BME280;7622;42.724;23.250;2023-02-16T05:37:59;95878.47;;;-1.58;100.00
15050;BME280;7622;42.724;23.250;2023-02-16T05:40:26;95887.19;;;-1.34;100.00
15050;BME280;7622;42.724;23.250;2023-02-16T05:42:53;95881.22;;;-1.33;100.00
15050;BME280;7622;42.724;23.250;2023-02-16T05:45:21;95850.41;;;-1.56;100.00
15050;BME280;7622;42.724;23.250;2023-02-16T05:47:48;95889.69;;;-1.32;100.00
15050;BME280;7622;42.724;23.250;2023-02-16T05:50:15;95888.06;;;-1.05;100.00
15050;BME280;7622;42.724;23.250;2023-02-16T05:52:42;95886.97;;;-0.69;100.00
15050;BME280;7622;42.724;23.250;2023-02-16T05:55:08;95893.03;;;-0.17;100.00
15050;BME280;7622;42.724;23.250;2023-02-16T05:57:35;95888.50;;;0.17;100.00
15050;BME280;7622;42.724;23.250;2023-02-16T06:00:03;95896.91;;;0.46;100.00
15050;BME280;7622;42.724;23.250;2023-02-16T06:02:32;95896.88;;;0.70;100.00
15050;BME280;7622;42.724;23.250;2023-02-16T06:04:58;95894.88;;;0.78;100.00
15050;BME280;7622;42.724;23.250;2023-02-16T06:07:25;95905.72;;;0.85;100.00
15050;BME280;7622;42.724;23.250;2023-02-16T06:09:52;95900.41;;;0.68;100.00
15050;BME280;7622;42.724;23.250;2023-02-16T06:12:19;95904.28;;;0.28;100.00
15050;BME280;7622;42.724;23.250;2023-02-16T06:14:46;95912.06;;;0.25;100.00
15050;BME280;7622;42.724;23.250;2023-02-16T06:17:12;95915.31;;;0.04;100.00
15050;BME280;7622;42.724;23.250;2023-02-16T06:19:40;95910.94;;;0.08;100.00
15050;BME280;7622;42.724;23.250;2023-02-16T06:22:07;95906.63;;;0.10;100.00
15050;BME280;7622;42.724;23.250;2023-02-16T06:24:34;95915.41;;;0.01;100.00
15050;BME280;7622;42.724;23.250;2023-02-16T06:27:01;95911.19;;;-0.26;100.00
15050;BME280;7622;42.724;23.250;2023-02-16T06:29:28;95913.84;;;-0.03;100.00
15050;BME280;7622;42.724;23.250;2023-02-16T06:31:56;95924.88;;;-0.01;100.00
15050;BME280;7622;42.724;23.250;2023-02-16T06:34:23;95920.16;;;0.13;100.00
15050;BME280;7622;42.724;23.250;2023-02-16T06:36:51;95921.63;;;0.20;100.00
15050;BME280;7622;42.724;23.250;2023-02-16T06:39:18;95895.38;;;-0.11;100.00
15050;BME280;7622;42.724;23.250;2023-02-16T06:41:45;95908.19;;;-0.13;100.00
15050;BME280;7622;42.724;23.250;2023-02-16T06:44:14;95923.19;;;-0.28;100.00
15050;BME280;7622;42.724;23.250;2023-02-16T06:46:42;95925.88;;;-0.07;100.00
15050;BME280;7622;42.724;23.250;2023-02-16T06:49:10;95931.56;;;0.02;100.00
15050;BME280;7622;42.724;23.250;2023-02-16T06:51:37;95919.25;;;0.14;100.00
15050;BME280;7622;42.724;23.250;2023-02-16T06:54:05;95923.47;;;0.15;100.00
15050;BME280;7622;42.724;23.250;2023-02-16T06:56:32;95925.97;;;0.17;100.00
15050;BME280;7622;42.724;23.250;2023-02-16T06:58:59;95926.09;;;0.38;100.00
15050;BME280;7622;42.724;23.250;2023-02-16T07:01:26;95924.75;;;0.53;100.00
15050;BME280;7622;42.724;23.250;2023-02-16T07:03:55;95919.84;;;0.72;100.00
15050;BME280;7622;42.724;23.250;2023-02-16T07:06:22;95916.19;;;1.26;100.00
15050;BME280;7622;42.724;23.250;2023-02-16T07:08:50;95907.44;;;1.76;100.00
15050;BME280;7622;42.724;23.250;2023-02-16T07:11:19;95911.13;;;2.53;100.00
15050;BME280;7622;42.724;23.250;2023-02-16T07:13:46;95905.63;;;3.20;100.00
15050;BME280;7622;42.724;23.250;2023-02-16T07:16:13;95896.94;;;3.79;100.00
15050;BME280;7622;42.724;23.250;2023-02-16T07:18:40;95897.13;;;4.10;100.00
15050;BME280;7622;42.724;23.250;2023-02-16T07:21:08;95893.03;;;4.58;100.00
15050;BME280;7622;42.724;23.250;2023-02-16T07:23:35;95888.78;;;5.07;100.00
15050;BME280;7622;42.724;23.250;2023-02-16T07:26:03;95897.75;;;5.00;100.00
15050;BME280;7622;42.724;23.250;2023-02-16T07:28:31;95896.88;;;5.17;100.00
15050;BME280;7622;42.724;23.250;2023-02-16T07:30:58;95869.25;;;5.51;100.00
15050;BME280;7622;42.724;23.250;2023-02-16T07:33:24;95885.09;;;6.07;100.00
15050;BME280;7622;42.724;23.250;2023-02-16T07:35:51;95886.22;;;6.32;100.00
15050;BME280;7622;42.724;23.250;2023-02-16T07:38:18;95887.88;;;6.63;100.00
15050;BME280;7622;42.724;23.250;2023-02-16T07:40:45;95881.25;;;7.30;100.00
15050;BME280;7622;42.724;23.250;2023-02-16T07:43:12;95877.38;;;7.09;100.00
15050;BME280;7622;42.724;23.250;2023-02-16T07:45:40;95883.28;;;6.97;100.00
15050;BME280;7622;42.724;23.250;2023-02-16T07:48:06;95891.59;;;7.30;100.00
15050;BME280;7622;42.724;23.250;2023-02-16T07:50:34;95899.78;;;7.92;100.00
15050;BME280;7622;42.724;23.250;2023-02-16T07:53:01;95893.03;;;7.48;89.90
15050;BME280;7622;42.724;23.250;2023-02-16T07:55:28;95886.78;;;7.24;99.64
15050;BME280;7622;42.724;23.250;2023-02-16T07:57:55;95896.66;;;6.89;100.00
15050;BME280;7622;42.724;23.250;2023-02-16T08:00:22;95897.47;;;6.90;100.00
15050;BME280;7622;42.724;23.250;2023-02-16T08:02:50;95884.38;;;6.93;100.00
15050;BME280;7622;42.724;23.250;2023-02-16T08:05:17;95897.13;;;7.24;99.17
15050;BME280;7622;42.724;23.250;2023-02-16T08:07:44;95892.44;;;7.72;90.05
15050;BME280;7622;42.724;23.250;2023-02-16T08:10:12;95896.88;;;7.70;87.41
15050;BME280;7622;42.724;23.250;2023-02-16T08:12:39;95886.91;;;8.71;82.51
15050;BME280;7622;42.724;23.250;2023-02-16T08:15:06;95899.03;;;8.83;76.09
15050;BME280;7622;42.724;23.250;2023-02-16T08:17:34;95897.13;;;8.60;77.03
15050;BME280;7622;42.724;23.250;2023-02-16T08:20:06;95900.13;;;8.27;75.94
15050;BME280;7622;42.724;23.250;2023-02-16T08:22:33;95904.00;;;8.86;73.59
15050;BME280;7622;42.724;23.250;2023-02-16T08:25:00;95907.75;;;8.82;71.95
15050;BME280;7622;42.724;23.250;2023-02-16T08:27:27;95899.22;;;8.93;68.87
15050;BME280;7622;42.724;23.250;2023-02-16T08:29:54;95904.22;;;8.83;71.00
15050;BME280;7622;42.724;23.250;2023-02-16T08:32:21;95909.09;;;9.00;69.58
15050;BME280;7622;42.724;23.250;2023-02-16T08:34:47;95895.28;;;8.87;71.07
15050;BME280;7622;42.724;23.250;2023-02-16T08:37:16;95903.91;;;9.87;64.75
15050;BME280;7622;42.724;23.250;2023-02-16T08:39:43;95909.72;;;10.27;60.96
15050;BME280;7622;42.724;23.250;2023-02-16T08:42:10;95904.34;;;10.18;61.03
15050;BME280;7622;42.724;23.250;2023-02-16T08:44:38;95914.13;;;9.65;62.62
15050;BME280;7622;42.724;23.250;2023-02-16T08:47:05;95906.06;;;10.30;62.67
15050;BME280;7622;42.724;23.250;2023-02-16T08:49:33;95888.59;;;10.32;59.84
15050;BME280;7622;42.724;23.250;2023-02-16T08:52:00;95903.19;;;10.22;62.25
15050;BME280;7622;42.724;23.250;2023-02-16T08:54:30;95899.16;;;10.77;58.43
15050;BME280;7622;42.724;23.250;2023-02-16T08:56:58;95872.34;;;10.41;57.85
15050;BME280;7622;42.724;23.250;2023-02-16T08:59:27;95896.03;;;10.13;59.55
15050;BME280;7622;42.724;23.250;2023-02-16T09:01:54;95868.19;;;10.74;58.20
15050;BME280;7622;42.724;23.250;2023-02-16T09:04:21;95894.16;;;10.74;57.90
15050;BME280;7622;42.724;23.250;2023-02-16T09:06:49;95892.72;;;11.04;56.48
15050;BME280;7622;42.724;23.250;2023-02-16T09:09:17;95897.28;;;10.44;71.70
15050;BME280;7622;42.724;23.250;2023-02-16T09:11:45;95894.47;;;12.15;58.30
15050;BME280;7622;42.724;23.250;2023-02-16T09:14:12;95894.56;;;12.14;55.44
15050;BME280;7622;42.724;23.250;2023-02-16T09:16:39;95888.56;;;11.69;55.71
15050;BME280;7622;42.724;23.250;2023-02-16T09:19:11;95887.53;;;11.71;54.66
15050;BME280;7622;42.724;23.250;2023-02-16T09:21:39;95862.31;;;11.72;53.81
15050;BME280;7622;42.724;23.250;2023-02-16T09:24:06;95886.25;;;11.88;54.25
15050;BME280;7622;42.724;23.250;2023-02-16T09:26:35;95879.97;;;11.57;54.15
15050;BME280;7622;42.724;23.250;2023-02-16T09:29:05;95877.19;;;12.03;53.64
15050;BME280;7622;42.724;23.250;2023-02-16T09:31:33;95868.78;;;12.43;52.51
15050;BME280;7622;42.724;23.250;2023-02-16T09:34:02;95878.69;;;12.17;52.20
15050;BME280;7622;42.724;23.250;2023-02-16T09:36:30;95880.53;;;11.94;53.28
15050;BME280;7622;42.724;23.250;2023-02-16T09:38:58;95870.63;;;12.93;51.61
15050;BME280;7622;42.724;23.250;2023-02-16T09:41:31;95849.59;;;13.06;49.35
15050;BME280;7622;42.724;23.250;2023-02-16T09:44:00;95873.97;;;12.75;50.21
15050;BME280;7622;42.724;23.250;2023-02-16T09:46:31;95863.91;;;13.12;50.01
15050;BME280;7622;42.724;23.250;2023-02-16T09:49:00;95866.53;;;13.42;49.30
15050;BME280;7622;42.724;23.250;2023-02-16T09:51:31;95853.72;;;13.09;49.27
15050;BME280;7622;42.724;23.250;2023-02-16T09:54:06;95854.84;;;12.65;50.14
15050;BME280;7622;42.724;23.250;2023-02-16T09:56:42;95848.59;;;12.97;49.65
15050;BME280;7622;42.724;23.250;2023-02-16T09:59:16;95847.56;;;12.47;50.66
15050;BME280;7622;42.724;23.250;2023-02-16T10:01:54;95839.94;;;12.76;50.85
15050;BME280;7622;42.724;23.250;2023-02-16T10:04:35;95842.66;;;12.75;49.75
15050;BME280;7622;42.724;23.250;2023-02-16T10:07:15;95838.22;;;12.13;51.34
15050;BME280;7622;42.724;23.250;2023-02-16T10:09:50;95830.78;;;12.61;51.35
15050;BME280;7622;42.724;23.250;2023-02-16T10:12:22;95839.19;;;12.85;49.85
15050;BME280;7622;42.724;23.250;2023-02-16T10:14:51;95819.91;;;12.56;50.42
15050;BME280;7622;42.724;23.250;2023-02-16T10:17:25;95815.25;;;12.80;49.69
15050;BME280;7622;42.724;23.250;2023-02-16T10:20:00;95815.66;;;13.67;49.03
15050;BME280;7622;42.724;23.250;2023-02-16T10:22:32;95820.19;;;13.25;48.97
15050;BME280;7622;42.724;23.250;2023-02-16T10:25:04;95819.94;;;13.77;48.16
15050;BME280;7622;42.724;23.250;2023-02-16T10:27:36;95815.03;;;14.13;47.58
15050;BME280;7622;42.724;23.250;2023-02-16T10:30:11;95813.22;;;14.04;46.98
15050;BME280;7622;42.724;23.250;2023-02-16T10:32:49;95807.63;;;13.49;47.99
15050;BME280;7622;42.724;23.250;2023-02-16T10:35:22;95770.59;;;13.74;47.69
15050;BME280;7622;42.724;23.250;2023-02-16T10:37:56;95806.09;;;13.96;47.34
15050;BME280;7622;42.724;23.250;2023-02-16T10:40:34;95801.44;;;14.57;46.39
15050;BME280;7622;42.724;23.250;2023-02-16T10:43:06;95798.13;;;14.36;46.89
15050;BME280;7622;42.724;23.250;2023-02-16T10:45:43;95797.38;;;14.92;45.74
15050;BME280;7622;42.724;23.250;2023-02-16T10:48:13;95765.44;;;14.88;44.96
15050;BME280;7622;42.724;23.250;2023-02-16T10:50:42;95786.31;;;14.23;46.53
15050;BME280;7622;42.724;23.250;2023-02-16T10:53:16;95783.53;;;14.14;46.43
15050;BME280;7622;42.724;23.250;2023-02-16T10:55:44;95776.97;;;14.58;45.96
15050;BME280;7622;42.724;23.250;2023-02-16T10:58:18;95769.97;;;14.96;45.56
15050;BME280;7622;42.724;23.250;2023-02-16T11:00:51;95735.69;;;14.43;45.97
15050;BME280;7622;42.724;23.250;2023-02-16T11:03:25;95771.72;;;14.39;46.19
15050;BME280;7622;42.724;23.250;2023-02-16T11:05:56;95768.59;;;14.92;45.56
15050;BME280;7622;42.724;23.250;2023-02-16T11:08:46;95766.16;;;14.81;46.73
15050;BME280;7622;42.724;23.250;2023-02-16T11:11:15;95764.94;;;15.12;52.74
15050;BME280;7622;42.724;23.250;2023-02-16T11:13:46;95749.34;;;14.93;45.29
15050;BME280;7622;42.724;23.250;2023-02-16T11:16:18;95753.69;;;15.02;45.42
15050;BME280;7622;42.724;23.250;2023-02-16T11:18:54;95748.78;;;14.89;45.42
15050;BME280;7622;42.724;23.250;2023-02-16T11:21:41;95741.69;;;14.72;45.62
15050;BME280;7622;42.724;23.250;2023-02-16T11:24:09;95749.69;;;15.35;44.24
15050;BME280;7622;42.724;23.250;2023-02-16T11:26:38;95741.78;;;15.17;44.77
15050;BME280;7622;42.724;23.250;2023-02-16T11:29:17;95736.75;;;15.33;44.03
15050;BME280;7622;42.724;23.250;2023-02-16T11:31:44;95740.53;;;15.49;43.85
15050;BME280;7622;42.724;23.250;2023-02-16T11:34:18;95731.91;;;15.11;44.50
15050;BME280;7622;42.724;23.250;2023-02-16T11:36:47;95675.91;;;14.94;43.97
15050;BME280;7622;42.724;23.250;2023-02-16T11:39:18;95731.53;;;14.96;44.18
15050;BME280;7622;42.724;23.250;2023-02-16T11:41:49;95726.66;;;15.11;44.01
15050;BME280;7622;42.724;23.250;2023-02-16T11:44:23;95717.94;;;15.20;44.10
15050;BME280;7622;42.724;23.250;2023-02-16T11:46:52;95724.88;;;15.39;43.68
15050;BME280;7622;42.724;23.250;2023-02-16T11:49:29;95722.34;;;15.47;43.12
15050;BME280;7622;42.724;23.250;2023-02-16T11:51:57;95719.88;;;14.91;44.04
15050;BME280;7622;42.724;23.250;2023-02-16T11:54:24;95721.84;;;14.79;44.67
15050;BME280;7622;42.724;23.250;2023-02-16T11:57:02;95717.31;;;14.72;44.66
15050;BME280;7622;42.724;23.250;2023-02-16T11:59:34;95703.06;;;14.93;44.16
15050;BME280;7622;42.724;23.250;2023-02-16T12:02:16;95704.16;;;14.91;44.21
15050;BME280;7622;42.724;23.250;2023-02-16T12:05:02;95708.22;;;15.03;44.39
15050;BME280;7622;42.724;23.250;2023-02-16T12:07:39;95682.03;;;14.39;44.57
15050;BME280;7622;42.724;23.250;2023-02-16T12:10:13;95698.94;;;14.91;44.62
15050;BME280;7622;42.724;23.250;2023-02-16T12:12:50;95677.69;;;14.94;43.77
15050;BME280;7622;42.724;23.250;2023-02-16T12:15:25;95690.00;;;14.84;44.15
15050;BME280;7622;42.724;23.250;2023-02-16T12:18:03;95666.09;;;14.13;45.14
15050;BME280;7622;42.724;23.250;2023-02-16T12:20:48;95674.13;;;13.83;45.52
15050;BME280;7622;42.724;23.250;2023-02-16T12:23:38;95665.31;;;13.55;46.03
15050;BME280;7622;42.724;23.250;2023-02-16T12:26:26;95665.56;;;14.00;45.70
15050;BME280;7622;42.724;23.250;2023-02-16T12:29:05;95665.31;;;14.03;45.27
15050;BME280;7622;42.724;23.250;2023-02-16T12:34:36;95662.84;;;13.34;46.25
15050;BME280;7622;42.724;23.250;2023-02-16T12:37:19;95660.09;;;13.45;46.30
15050;BME280;7622;42.724;23.250;2023-02-16T12:39:53;95657.31;;;13.56;46.17
15050;BME280;7622;42.724;23.250;2023-02-16T12:42:43;95649.34;;;13.19;46.23
15050;BME280;7622;42.724;23.250;2023-02-16T12:45:17;95647.00;;;13.35;46.35
15050;BME280;7622;42.724;23.250;2023-02-16T12:47:47;95651.56;;;13.33;46.47
15050;BME280;7622;42.724;23.250;2023-02-16T12:50:20;95648.75;;;13.06;46.60
15050;BME280;7622;42.724;23.250;2023-02-16T12:52:52;95646.56;;;13.21;46.69
15050;BME280;7622;42.724;23.250;2023-02-16T12:55:25;95642.75;;;13.25;46.68
15050;BME280;7622;42.724;23.250;2023-02-16T12:57:57;95639.88;;;13.18;46.88
15050;BME280;7622;42.724;23.250;2023-02-16T13:00:34;95632.09;;;12.97;47.07
15050;BME280;7622;42.724;23.250;2023-02-16T13:03:12;95631.66;;;12.83;47.22
15050;BME280;7622;42.724;23.250;2023-02-16T13:05:43;95633.75;;;12.98;47.11
15050;BME280;7622;42.724;23.250;2023-02-16T13:08:17;95633.28;;;13.24;46.69
15050;BME280;7622;42.724;23.250;2023-02-16T13:10:54;95628.41;;;13.10;46.86
15050;BME280;7622;42.724;23.250;2023-02-16T13:13:25;95620.06;;;13.16;46.35
15050;BME280;7622;42.724;23.250;2023-02-16T13:15:59;95620.38;;;13.32;46.06
15050;BME280;7622;42.724;23.250;2023-02-16T13:18:30;95621.03;;;13.15;46.71
15050;BME280;7622;42.724;23.250;2023-02-16T13:21:01;95612.53;;;13.51;46.00